Aérodrome :
LOGIN :

S'inscrire | Disclaimer

   EN    FR    IT 

 










Légende :    VFR   VFR Marginal   IFR   IFR Intensif   IFR Très Intensif
Visi : 
Plafond : 
>= 8 km
>= 3000ft
5 à 8 km
1000 à 3000 ft
1500m à 5 km
500 à 1000 ft
800 à 1500m
200 à 500 ft
< 800m
< 200 ft
Symboles :   Orages  Brouillard  Fortes neiges  Fortes précipitations  Vent > 20 kt
SIGMETs :   Divers  Orages  Givrage  Turbulence  Onde Orograph.  Cendres Volcan.






- Altitude de l'aérodrome : 495 ft
- Code IATA : BUD


LHBP - Budapest Ferihegy

DERNIER METAR :
  • 170400Z 13007KT CAVOK 02/00 Q1022 NOSIG

METARs EXPIRÉS :
  • 170330Z 10008KT CAVOK 03/01 Q1022 NOSIG
  • 170300Z 09008KT CAVOK 03/01 Q1023 NOSIG
  • 170230Z 12008KT CAVOK 03/01 Q1023 NOSIG
  • 170200Z 09009KT CAVOK 04/01 Q1023 NOSIG
  • 170131Z 10008KT CAVOK 03/02 Q1023 NOSIG

TAF TAF LHBP
Valide du 17 à 00h jusqu'au 18 à 00h UTC


162315Z 1700/1724 10007KT CAVOK
TEMPO 1709/1716 16005KT
BECMG 1710/1712 SCT038 SCT270
BECMG 1716/1718 07005KT CAVOK
BECMG 1722/1724 VRB03KT 5000 BR



MET'MAP, la Météo Aéronautique d'un coup d'oeil ! - Copyright ORBIFLY Décembre 2007 - Disclaimer

ORBIFLY MET'MAP TEAM :

Programmation & Développement : Alexandra Zaïnal
Sur une idée originale de : Baudouin d'Aumeries
Assistance à la programmation : Marc-Olivier Méhu
Soutien technique & logistique : Manuel Goepfert

Contact : metmap@orbifly.com




SOURCES & CREDITS :

   NOAA